sensor_id;sensor_type;location;lat;lon;timestamp;pressure;altitude;pressure_sealevel;temperature;humidity
46836;BME280;32573;51.290;6.926;2023-06-19T00:01:59;99499.69;;;24.06;75.75
46836;BME280;32573;51.290;6.926;2023-06-19T00:04:28;99492.72;;;24.02;75.82
46836;BME280;32573;51.290;6.926;2023-06-19T00:06:57;99491.09;;;23.98;76.22
46836;BME280;32573;51.290;6.926;2023-06-19T00:09:26;99491.25;;;23.93;76.16
46836;BME280;32573;51.290;6.926;2023-06-19T00:11:54;99494.09;;;23.88;76.40
46836;BME280;32573;51.290;6.926;2023-06-19T00:14:23;99493.34;;;23.85;76.90
46836;BME280;32573;51.290;6.926;2023-06-19T00:16:51;99498.91;;;23.79;76.93
46836;BME280;32573;51.290;6.926;2023-06-19T00:19:21;99499.97;;;23.75;78.01
46836;BME280;32573;51.290;6.926;2023-06-19T00:21:50;99493.81;;;23.71;77.62
46836;BME280;32573;51.290;6.926;2023-06-19T00:24:18;99495.78;;;23.66;78.35
46836;BME280;32573;51.290;6.926;2023-06-19T00:26:47;99487.97;;;23.61;78.48
46836;BME280;32573;51.290;6.926;2023-06-19T00:29:15;99494.38;;;23.56;78.85
46836;BME280;32573;51.290;6.926;2023-06-19T00:31:44;99497.22;;;23.51;79.30
46836;BME280;32573;51.290;6.926;2023-06-19T00:34:12;99504.53;;;23.46;79.25
46836;BME280;32573;51.290;6.926;2023-06-19T00:36:42;99498.44;;;23.42;79.83
46836;BME280;32573;51.290;6.926;2023-06-19T00:39:11;99501.22;;;23.39;79.64
46836;BME280;32573;51.290;6.926;2023-06-19T00:41:40;99504.06;;;23.35;80.00
46836;BME280;32573;51.290;6.926;2023-06-19T00:44:10;99499.72;;;23.31;80.05
46836;BME280;32573;51.290;6.926;2023-06-19T00:46:40;99507.91;;;23.26;80.66
46836;BME280;32573;51.290;6.926;2023-06-19T00:49:09;99506.22;;;23.23;80.40
46836;BME280;32573;51.290;6.926;2023-06-19T00:51:37;99518.81;;;23.20;81.10
46836;BME280;32573;51.290;6.926;2023-06-19T00:54:08;99528.78;;;23.15;81.44
46836;BME280;32573;51.290;6.926;2023-06-19T00:56:38;99521.78;;;23.11;81.71
46836;BME280;32573;51.290;6.926;2023-06-19T00:59:11;99527.28;;;23.06;81.89
46836;BME280;32573;51.290;6.926;2023-06-19T01:01:43;99526.53;;;23.02;82.51
46836;BME280;32573;51.290;6.926;2023-06-19T01:04:12;99523.13;;;22.97;82.51
46836;BME280;32573;51.290;6.926;2023-06-19T01:06:46;99519.72;;;22.92;82.94
46836;BME280;32573;51.290;6.926;2023-06-19T01:09:16;99521.59;;;22.89;83.05
46836;BME280;32573;51.290;6.926;2023-06-19T01:11:50;99528.84;;;22.85;83.33
46836;BME280;32573;51.290;6.926;2023-06-19T01:14:25;99521.84;;;22.81;83.49
46836;BME280;32573;51.290;6.926;2023-06-19T01:16:54;99522.81;;;22.78;82.92
46836;BME280;32573;51.290;6.926;2023-06-19T01:19:25;99525.56;;;22.77;83.42
46836;BME280;32573;51.290;6.926;2023-06-19T01:21:54;99520.28;;;22.74;84.00
46836;BME280;32573;51.290;6.926;2023-06-19T01:24:24;99531.06;;;22.71;84.16
46836;BME280;32573;51.290;6.926;2023-06-19T01:26:52;99526.69;;;22.70;83.78
46836;BME280;32573;51.290;6.926;2023-06-19T01:29:21;99515.28;;;22.65;84.49
46836;BME280;32573;51.290;6.926;2023-06-19T01:31:54;99521.59;;;22.62;84.95
46836;BME280;32573;51.290;6.926;2023-06-19T01:34:25;99507.44;;;22.58;84.70
46836;BME280;32573;51.290;6.926;2023-06-19T01:36:55;99506.63;;;22.56;85.68
46836;BME280;32573;51.290;6.926;2023-06-19T01:39:26;99511.19;;;22.53;85.91
46836;BME280;32573;51.290;6.926;2023-06-19T01:41:56;99509.53;;;22.49;85.79
46836;BME280;32573;51.290;6.926;2023-06-19T01:44:25;99513.25;;;22.45;86.01
46836;BME280;32573;51.290;6.926;2023-06-19T01:46:54;99513.38;;;22.40;86.67
46836;BME280;32573;51.290;6.926;2023-06-19T01:49:23;99514.38;;;22.36;86.70
46836;BME280;32573;51.290;6.926;2023-06-19T01:51:51;99508.31;;;22.31;86.67
46836;BME280;32573;51.290;6.926;2023-06-19T01:54:20;99507.59;;;22.26;87.15
46836;BME280;32573;51.290;6.926;2023-06-19T01:56:50;99506.81;;;22.22;87.79
46836;BME280;32573;51.290;6.926;2023-06-19T01:59:18;99511.31;;;22.18;87.74
46836;BME280;32573;51.290;6.926;2023-06-19T02:01:48;99515.03;;;22.14;88.13
46836;BME280;32573;51.290;6.926;2023-06-19T02:04:17;99524.88;;;22.11;88.08
46836;BME280;32573;51.290;6.926;2023-06-19T02:06:45;99532.06;;;22.09;88.18
46836;BME280;32573;51.290;6.926;2023-06-19T02:09:15;99526.81;;;22.06;88.39
46836;BME280;32573;51.290;6.926;2023-06-19T02:11:43;99533.00;;;22.06;87.82
46836;BME280;32573;51.290;6.926;2023-06-19T02:14:13;99533.09;;;22.05;88.30
46836;BME280;32573;51.290;6.926;2023-06-19T02:16:42;99539.28;;;22.05;87.95
46836;BME280;32573;51.290;6.926;2023-06-19T02:19:11;99551.69;;;22.06;88.04
46836;BME280;32573;51.290;6.926;2023-06-19T02:21:39;99545.44;;;22.07;88.46
46836;BME280;32573;51.290;6.926;2023-06-19T02:24:08;99547.19;;;22.08;88.26
46836;BME280;32573;51.290;6.926;2023-06-19T02:26:38;99556.00;;;22.10;87.93
46836;BME280;32573;51.290;6.926;2023-06-19T02:29:06;99554.19;;;22.12;88.03
46836;BME280;32573;51.290;6.926;2023-06-19T02:31:36;99559.41;;;22.15;88.87
46836;BME280;32573;51.290;6.926;2023-06-19T02:34:05;99567.31;;;22.18;88.79
46836;BME280;32573;51.290;6.926;2023-06-19T02:36:33;99577.03;;;22.23;88.19
46836;BME280;32573;51.290;6.926;2023-06-19T02:39:04;99576.91;;;22.26;89.00
46836;BME280;32573;51.290;6.926;2023-06-19T02:41:33;99589.25;;;22.30;88.83
46836;BME280;32573;51.290;6.926;2023-06-19T02:44:03;99593.56;;;22.34;88.72
46836;BME280;32573;51.290;6.926;2023-06-19T02:46:32;99597.06;;;22.36;89.12
46836;BME280;32573;51.290;6.926;2023-06-19T02:49:02;99602.38;;;22.37;89.53
46836;BME280;32573;51.290;6.926;2023-06-19T02:51:31;99610.34;;;22.39;89.23
46836;BME280;32573;51.290;6.926;2023-06-19T02:53:59;99612.06;;;22.40;89.45
46836;BME280;32573;51.290;6.926;2023-06-19T02:56:28;99623.56;;;22.42;89.76
46836;BME280;32573;51.290;6.926;2023-06-19T02:58:56;99623.50;;;22.44;89.74
46836;BME280;32573;51.290;6.926;2023-06-19T03:01:25;99621.69;;;22.46;90.79
46836;BME280;32573;51.290;6.926;2023-06-19T03:03:53;99622.50;;;22.48;90.73
46836;BME280;32573;51.290;6.926;2023-06-19T03:06:23;99625.16;;;22.49;90.94
46836;BME280;32573;51.290;6.926;2023-06-19T03:08:53;99631.28;;;22.51;91.05
46836;BME280;32573;51.290;6.926;2023-06-19T03:11:22;99624.13;;;22.53;91.15
46836;BME280;32573;51.290;6.926;2023-06-19T03:13:51;99626.75;;;22.55;91.46
46836;BME280;32573;51.290;6.926;2023-06-19T03:16:21;99622.28;;;22.55;91.93
46836;BME280;32573;51.290;6.926;2023-06-19T03:18:50;99625.78;;;22.57;92.14
46836;BME280;32573;51.290;6.926;2023-06-19T03:21:25;99632.94;;;22.55;92.37
46836;BME280;32573;51.290;6.926;2023-06-19T03:23:55;99631.22;;;22.54;92.38
46836;BME280;32573;51.290;6.926;2023-06-19T03:26:25;99646.28;;;22.55;92.85
46836;BME280;32573;51.290;6.926;2023-06-19T03:28:58;99640.13;;;22.53;92.97
46836;BME280;32573;51.290;6.926;2023-06-19T03:31:33;99647.25;;;22.53;93.16
46836;BME280;32573;51.290;6.926;2023-06-19T03:34:02;99645.56;;;22.50;93.78
46836;BME280;32573;51.290;6.926;2023-06-19T03:36:33;99655.34;;;22.50;94.63
46836;BME280;32573;51.290;6.926;2023-06-19T03:39:07;99660.72;;;22.48;94.11
46836;BME280;32573;51.290;6.926;2023-06-19T03:41:37;99664.31;;;22.47;94.65
46836;BME280;32573;51.290;6.926;2023-06-19T03:44:05;99661.75;;;22.44;95.16
46836;BME280;32573;51.290;6.926;2023-06-19T03:46:34;99674.19;;;22.44;95.23
46836;BME280;32573;51.290;6.926;2023-06-19T03:49:02;99676.00;;;22.43;95.24
46836;BME280;32573;51.290;6.926;2023-06-19T03:51:33;99674.25;;;22.42;96.18
46836;BME280;32573;51.290;6.926;2023-06-19T03:54:02;99677.91;;;22.38;96.43
46836;BME280;32573;51.290;6.926;2023-06-19T03:56:30;99693.09;;;22.36;96.34
46836;BME280;32573;51.290;6.926;2023-06-19T03:58:59;99690.41;;;22.36;96.93
46836;BME280;32573;51.290;6.926;2023-06-19T04:01:27;99692.25;;;22.34;97.05
46836;BME280;32573;51.290;6.926;2023-06-19T04:03:56;99695.84;;;22.33;97.21
46836;BME280;32573;51.290;6.926;2023-06-19T04:06:25;99692.34;;;22.31;97.90
46836;BME280;32573;51.290;6.926;2023-06-19T04:08:55;99701.28;;;22.30;98.05
46836;BME280;32573;51.290;6.926;2023-06-19T04:11:23;99717.28;;;22.30;97.83
46836;BME280;32573;51.290;6.926;2023-06-19T04:13:52;99719.94;;;22.30;98.79
46836;BME280;32573;51.290;6.926;2023-06-19T04:16:20;99717.38;;;22.27;98.56
46836;BME280;32573;51.290;6.926;2023-06-19T04:18:49;99718.31;;;22.24;99.10
46836;BME280;32573;51.290;6.926;2023-06-19T04:21:18;99721.03;;;22.23;99.22
46836;BME280;32573;51.290;6.926;2023-06-19T04:23:46;99726.38;;;22.21;99.63
46836;BME280;32573;51.290;6.926;2023-06-19T04:26:16;99733.56;;;22.17;100.00
46836;BME280;32573;51.290;6.926;2023-06-19T04:28:45;99744.25;;;22.16;100.00
46836;BME280;32573;51.290;6.926;2023-06-19T04:31:14;99742.56;;;22.13;100.00
46836;BME280;32573;51.290;6.926;2023-06-19T04:33:45;99736.38;;;22.11;100.00
46836;BME280;32573;51.290;6.926;2023-06-19T04:36:14;99736.44;;;22.10;100.00
46836;BME280;32573;51.290;6.926;2023-06-19T04:38:46;99745.34;;;22.09;100.00
46836;BME280;32573;51.290;6.926;2023-06-19T04:41:22;99743.63;;;22.06;100.00
46836;BME280;32573;51.290;6.926;2023-06-19T04:43:51;99741.88;;;22.05;100.00
46836;BME280;32573;51.290;6.926;2023-06-19T04:46:20;99753.47;;;22.04;100.00
46836;BME280;32573;51.290;6.926;2023-06-19T04:48:49;99744.59;;;22.04;100.00
46836;BME280;32573;51.290;6.926;2023-06-19T04:51:18;99754.47;;;22.00;100.00
46836;BME280;32573;51.290;6.926;2023-06-19T04:53:55;99757.13;;;22.00;100.00
46836;BME280;32573;51.290;6.926;2023-06-19T04:56:31;99757.16;;;21.98;100.00
46836;BME280;32573;51.290;6.926;2023-06-19T04:59:03;99757.16;;;21.98;100.00
46836;BME280;32573;51.290;6.926;2023-06-19T05:01:41;99755.41;;;21.99;100.00
46836;BME280;32573;51.290;6.926;2023-06-19T05:04:14;99757.13;;;22.00;100.00
46836;BME280;32573;51.290;6.926;2023-06-19T05:06:43;99765.13;;;22.00;100.00
46836;BME280;32573;51.290;6.926;2023-06-19T05:09:26;99753.59;;;22.00;100.00
46836;BME280;32573;51.290;6.926;2023-06-19T05:11:59;99752.75;;;21.97;100.00
46836;BME280;32573;51.290;6.926;2023-06-19T05:14:27;99764.25;;;22.00;100.00
46836;BME280;32573;51.290;6.926;2023-06-19T05:16:56;99767.78;;;22.00;100.00
46836;BME280;32573;51.290;6.926;2023-06-19T05:19:25;99771.38;;;21.99;100.00
46836;BME280;32573;51.290;6.926;2023-06-19T05:24:23;99757.25;;;21.94;100.00
46836;BME280;32573;51.290;6.926;2023-06-19T05:26:53;99757.31;;;21.92;100.00
46836;BME280;32573;51.290;6.926;2023-06-19T05:29:27;99764.47;;;21.92;100.00
46836;BME280;32573;51.290;6.926;2023-06-19T05:31:56;99773.34;;;21.91;100.00
46836;BME280;32573;51.290;6.926;2023-06-19T05:34:25;99762.75;;;21.89;100.00
46836;BME280;32573;51.290;6.926;2023-06-19T05:36:54;99762.69;;;21.91;100.00
46836;BME280;32573;51.290;6.926;2023-06-19T05:39:30;99776.09;;;21.88;100.00
46836;BME280;32573;51.290;6.926;2023-06-19T05:42:00;99760.84;;;21.94;100.00
46836;BME280;32573;51.290;6.926;2023-06-19T05:44:31;99768.84;;;21.94;100.00
46836;BME280;32573;51.290;6.926;2023-06-19T05:46:59;99774.94;;;21.98;100.00
46836;BME280;32573;51.290;6.926;2023-06-19T05:49:28;99780.19;;;22.01;100.00
46836;BME280;32573;51.290;6.926;2023-06-19T05:51:57;99775.69;;;22.03;100.00
46836;BME280;32573;51.290;6.926;2023-06-19T05:54:26;99776.53;;;22.05;100.00
46836;BME280;32573;51.290;6.926;2023-06-19T05:56:55;99774.72;;;22.07;100.00
46836;BME280;32573;51.290;6.926;2023-06-19T05:59:27;99779.09;;;22.10;100.00
46836;BME280;32573;51.290;6.926;2023-06-19T06:02:00;99782.59;;;22.12;100.00
46836;BME280;32573;51.290;6.926;2023-06-19T06:04:30;99790.53;;;22.13;100.00
46836;BME280;32573;51.290;6.926;2023-06-19T06:07:05;99787.88;;;22.13;100.00
46836;BME280;32573;51.290;6.926;2023-06-19T06:09:33;99794.06;;;22.15;100.00
46836;BME280;32573;51.290;6.926;2023-06-19T06:12:14;99798.44;;;22.18;100.00
46836;BME280;32573;51.290;6.926;2023-06-19T06:14:49;99802.84;;;22.21;100.00
46836;BME280;32573;51.290;6.926;2023-06-19T06:17:20;99804.63;;;22.18;100.00
46836;BME280;32573;51.290;6.926;2023-06-19T06:20:04;99806.53;;;22.15;100.00
46836;BME280;32573;51.290;6.926;2023-06-19T06:22:44;99801.13;;;22.16;100.00
46836;BME280;32573;51.290;6.926;2023-06-19T06:25:13;99804.69;;;22.17;100.00
46836;BME280;32573;51.290;6.926;2023-06-19T06:27:42;99812.63;;;22.18;100.00
46836;BME280;32573;51.290;6.926;2023-06-19T06:30:14;99804.63;;;22.18;100.00
46836;BME280;32573;51.290;6.926;2023-06-19T06:32:48;99811.78;;;22.20;100.00
46836;BME280;32573;51.290;6.926;2023-06-19T06:35:22;99806.44;;;22.20;100.00
46836;BME280;32573;51.290;6.926;2023-06-19T06:37:57;99808.16;;;22.22;100.00
46836;BME280;32573;51.290;6.926;2023-06-19T06:40:29;99806.34;;;22.24;100.00
46836;BME280;32573;51.290;6.926;2023-06-19T06:42:58;99813.38;;;22.27;100.00
46836;BME280;32573;51.290;6.926;2023-06-19T06:45:27;99807.94;;;22.30;100.00
46836;BME280;32573;51.290;6.926;2023-06-19T06:47:58;99805.28;;;22.30;100.00
46836;BME280;32573;51.290;6.926;2023-06-19T06:50:28;99815.94;;;22.30;100.00
46836;BME280;32573;51.290;6.926;2023-06-19T06:53:00;99816.78;;;22.32;100.00
46836;BME280;32573;51.290;6.926;2023-06-19T06:55:29;99823.88;;;22.33;100.00
46836;BME280;32573;51.290;6.926;2023-06-19T06:58:01;99823.88;;;22.33;100.00
46836;BME280;32573;51.290;6.926;2023-06-19T07:00:30;99827.41;;;22.33;100.00
46836;BME280;32573;51.290;6.926;2023-06-19T07:03:00;99838.91;;;22.35;100.00
46836;BME280;32573;51.290;6.926;2023-06-19T07:05:41;99831.78;;;22.36;100.00
46836;BME280;32573;51.290;6.926;2023-06-19T07:08:18;99839.78;;;22.36;100.00
46836;BME280;32573;51.290;6.926;2023-06-19T07:10:59;99838.03;;;22.35;100.00
46836;BME280;32573;51.290;6.926;2023-06-19T07:13:29;99841.78;;;22.28;100.00
46836;BME280;32573;51.290;6.926;2023-06-19T07:15:59;99848.81;;;22.32;100.00
46836;BME280;32573;51.290;6.926;2023-06-19T07:18:36;99854.13;;;22.32;100.00
46836;BME280;32573;51.290;6.926;2023-06-19T07:21:16;99855.88;;;22.33;100.00
46836;BME280;32573;51.290;6.926;2023-06-19T07:23:46;99862.13;;;22.32;100.00
46836;BME280;32573;51.290;6.926;2023-06-19T07:26:30;99863.03;;;22.31;100.00
46836;BME280;32573;51.290;6.926;2023-06-19T07:29:02;99863.09;;;22.29;100.00
46836;BME280;32573;51.290;6.926;2023-06-19T07:31:32;99865.75;;;22.29;100.00
46836;BME280;32573;51.290;6.926;2023-06-19T07:34:02;99854.13;;;22.32;100.00
46836;BME280;32573;51.290;6.926;2023-06-19T07:36:34;99852.28;;;22.34;100.00
46836;BME280;32573;51.290;6.926;2023-06-19T07:39:02;99861.13;;;22.36;100.00
46836;BME280;32573;51.290;6.926;2023-06-19T07:41:31;99854.84;;;22.38;100.00
46836;BME280;32573;51.290;6.926;2023-06-19T07:44:00;99852.13;;;22.40;100.00
46836;BME280;32573;51.290;6.926;2023-06-19T07:46:28;99862.72;;;22.43;100.00
46836;BME280;32573;51.290;6.926;2023-06-19T07:48:57;99857.31;;;22.46;100.00
46836;BME280;32573;51.290;6.926;2023-06-19T07:51:26;99855.47;;;22.48;100.00
46836;BME280;32573;51.290;6.926;2023-06-19T07:53:55;99861.66;;;22.50;100.00
46836;BME280;32573;51.290;6.926;2023-06-19T07:56:23;99873.25;;;22.49;100.00
46836;BME280;32573;51.290;6.926;2023-06-19T07:58:52;99881.25;;;22.49;100.00
46836;BME280;32573;51.290;6.926;2023-06-19T08:01:20;99878.66;;;22.46;100.00
46836;BME280;32573;51.290;6.926;2023-06-19T08:03:49;99884.91;;;22.45;100.00
46836;BME280;32573;51.290;6.926;2023-06-19T08:06:18;99885.94;;;22.39;100.00
46836;BME280;32573;51.290;6.926;2023-06-19T08:08:48;99889.63;;;22.34;100.00
46836;BME280;32573;51.290;6.926;2023-06-19T08:11:16;99885.28;;;22.30;100.00
46836;BME280;32573;51.290;6.926;2023-06-19T08:13:45;99888.94;;;22.26;100.00
46836;BME280;32573;51.290;6.926;2023-06-19T08:16:13;99879.28;;;22.22;100.00
46836;BME280;32573;51.290;6.926;2023-06-19T08:18:43;99867.78;;;22.18;100.00
46836;BME280;32573;51.290;6.926;2023-06-19T08:21:12;99873.09;;;22.20;100.00
46836;BME280;32573;51.290;6.926;2023-06-19T08:23:41;99868.63;;;22.22;100.00
46836;BME280;32573;51.290;6.926;2023-06-19T08:26:12;99866.75;;;22.24;100.00
46836;BME280;32573;51.290;6.926;2023-06-19T08:28:41;99874.63;;;22.30;100.00
46836;BME280;32573;51.290;6.926;2023-06-19T08:31:10;99878.09;;;22.33;100.00
46836;BME280;32573;51.290;6.926;2023-06-19T08:33:38;99879.78;;;22.36;100.00
46836;BME280;32573;51.290;6.926;2023-06-19T08:36:07;99873.59;;;22.35;100.00
46836;BME280;32573;51.290;6.926;2023-06-19T08:38:36;99871.78;;;22.36;100.00
46836;BME280;32573;51.290;6.926;2023-06-19T08:41:05;99872.63;;;22.39;100.00
46836;BME280;32573;51.290;6.926;2023-06-19T08:43:35;99871.56;;;22.45;100.00
46836;BME280;32573;51.290;6.926;2023-06-19T08:46:09;99875.88;;;22.51;100.00
46836;BME280;32573;51.290;6.926;2023-06-19T08:48:38;99866.00;;;22.54;100.00
46836;BME280;32573;51.290;6.926;2023-06-19T08:51:07;99872.13;;;22.58;100.00
46836;BME280;32573;51.290;6.926;2023-06-19T08:53:44;99874.69;;;22.63;100.00
46836;BME280;32573;51.290;6.926;2023-06-19T08:56:13;99884.38;;;22.67;100.00
46836;BME280;32573;51.290;6.926;2023-06-19T08:58:43;99874.50;;;22.69;100.00
46836;BME280;32573;51.290;6.926;2023-06-19T09:01:13;99873.59;;;22.70;100.00
46836;BME280;32573;51.290;6.926;2023-06-19T09:03:44;99881.53;;;22.73;100.00
46836;BME280;32573;51.290;6.926;2023-06-19T09:06:15;99881.44;;;22.76;100.00
46836;BME280;32573;51.290;6.926;2023-06-19T09:08:44;99883.13;;;22.80;100.00
46836;BME280;32573;51.290;6.926;2023-06-19T09:11:12;99883.00;;;22.85;100.00
46836;BME280;32573;51.290;6.926;2023-06-19T09:13:56;99868.59;;;22.90;100.00
46836;BME280;32573;51.290;6.926;2023-06-19T09:16:36;99878.31;;;22.93;100.00
46836;BME280;32573;51.290;6.926;2023-06-19T09:19:05;99887.06;;;22.99;100.00
46836;BME280;32573;51.290;6.926;2023-06-19T09:21:36;99882.56;;;23.01;100.00
46836;BME280;32573;51.290;6.926;2023-06-19T09:24:06;99895.84;;;23.04;100.00
46836;BME280;32573;51.290;6.926;2023-06-19T09:26:36;99887.72;;;23.08;100.00
46836;BME280;32573;51.290;6.926;2023-06-19T09:29:13;99894.75;;;23.12;100.00
46836;BME280;32573;51.290;6.926;2023-06-19T09:31:47;99895.50;;;23.17;100.00
46836;BME280;32573;51.290;6.926;2023-06-19T09:34:16;99902.47;;;23.21;100.00
46836;BME280;32573;51.290;6.926;2023-06-19T09:36:46;99893.50;;;23.23;100.00
46836;BME280;32573;51.290;6.926;2023-06-19T09:39:15;99892.53;;;23.26;100.00
46836;BME280;32573;51.290;6.926;2023-06-19T09:41:46;99898.63;;;23.31;100.00
46836;BME280;32573;51.290;6.926;2023-06-19T09:44:19;99900.25;;;23.37;100.00
46836;BME280;32573;51.290;6.926;2023-06-19T09:46:51;99888.63;;;23.39;100.00
46836;BME280;32573;51.290;6.926;2023-06-19T09:49:24;99897.38;;;23.44;100.00
46836;BME280;32573;51.290;6.926;2023-06-19T09:51:54;99893.59;;;23.52;100.00
46836;BME280;32573;51.290;6.926;2023-06-19T09:54:24;99909.44;;;23.58;100.00
46836;BME280;32573;51.290;6.926;2023-06-19T09:56:55;99905.66;;;23.65;100.00
46836;BME280;32573;51.290;6.926;2023-06-19T09:59:27;99910.81;;;23.71;100.00
46836;BME280;32573;51.290;6.926;2023-06-19T10:01:56;99905.44;;;23.74;100.00
46836;BME280;32573;51.290;6.926;2023-06-19T10:04:25;99917.75;;;23.78;100.00
46836;BME280;32573;51.290;6.926;2023-06-19T10:06:53;99914.19;;;23.79;100.00
46836;BME280;32573;51.290;6.926;2023-06-19T10:09:32;99915.91;;;23.80;100.00
46836;BME280;32573;51.290;6.926;2023-06-19T10:12:11;99915.81;;;23.83;100.00
46836;BME280;32573;51.290;6.926;2023-06-19T10:14:46;99919.31;;;23.85;100.00
46836;BME280;32573;51.290;6.926;2023-06-19T10:17:16;99907.66;;;23.88;100.00
46836;BME280;32573;51.290;6.926;2023-06-19T10:19:49;99910.19;;;23.93;100.00
46836;BME280;32573;51.290;6.926;2023-06-19T10:22:19;99910.94;;;23.98;100.00
46836;BME280;32573;51.290;6.926;2023-06-19T10:24:49;99901.03;;;24.01;100.00
46836;BME280;32573;51.290;6.926;2023-06-19T10:27:20;99901.78;;;24.05;100.00
46836;BME280;32573;51.290;6.926;2023-06-19T10:29:53;99905.19;;;24.10;100.00
46836;BME280;32573;51.290;6.926;2023-06-19T10:32:42;99904.22;;;24.13;100.00
46836;BME280;32573;51.290;6.926;2023-06-19T10:35:11;99896.09;;;24.16;100.00
46836;BME280;32573;51.290;6.926;2023-06-19T10:37:40;99898.66;;;24.19;100.00
46836;BME280;32573;51.290;6.926;2023-06-19T10:40:09;99895.94;;;24.20;100.00
46836;BME280;32573;51.290;6.926;2023-06-19T10:42:40;99895.84;;;24.23;100.00
46836;BME280;32573;51.290;6.926;2023-06-19T10:45:11;99883.28;;;24.25;100.00
46836;BME280;32573;51.290;6.926;2023-06-19T10:47:40;99898.34;;;24.29;100.00
46836;BME280;32573;51.290;6.926;2023-06-19T10:50:10;99889.25;;;24.33;100.00
46836;BME280;32573;51.290;6.926;2023-06-19T10:52:43;99896.28;;;24.38;100.00
46836;BME280;32573;51.290;6.926;2023-06-19T10:55:12;99892.66;;;24.39;100.00
46836;BME280;32573;51.290;6.926;2023-06-19T10:57:44;99899.66;;;24.43;100.00
46836;BME280;32573;51.290;6.926;2023-06-19T11:00:24;99892.38;;;24.48;100.00
46836;BME280;32573;51.290;6.926;2023-06-19T11:02:53;99885.19;;;24.50;100.00
46836;BME280;32573;51.290;6.926;2023-06-19T11:05:24;99887.75;;;24.53;100.00
46836;BME280;32573;51.290;6.926;2023-06-19T11:07:54;99884.09;;;24.56;100.00
46836;BME280;32573;51.290;6.926;2023-06-19T11:10:25;99882.28;;;24.56;100.00
46836;BME280;32573;51.290;6.926;2023-06-19T11:12:54;99897.31;;;24.60;100.00
46836;BME280;32573;51.290;6.926;2023-06-19T11:15:31;99888.38;;;24.61;100.00
46836;BME280;32573;51.290;6.926;2023-06-19T11:18:01;99890.00;;;24.65;100.00
46836;BME280;32573;51.290;6.926;2023-06-19T11:20:30;99893.53;;;24.67;100.00
46836;BME280;32573;51.290;6.926;2023-06-19T11:23:00;99888.03;;;24.70;100.00
46836;BME280;32573;51.290;6.926;2023-06-19T11:25:37;99887.06;;;24.73;100.00
46836;BME280;32573;51.290;6.926;2023-06-19T11:28:11;99885.09;;;24.78;100.00
46836;BME280;32573;51.290;6.926;2023-06-19T11:31:04;99888.44;;;24.85;100.00
46836;BME280;32573;51.290;6.926;2023-06-19T11:33:35;99887.41;;;24.89;99.48
46836;BME280;32573;51.290;6.926;2023-06-19T11:36:12;99878.44;;;24.90;99.41
46836;BME280;32573;51.290;6.926;2023-06-19T11:38:45;99882.66;;;24.97;99.13
46836;BME280;32573;51.290;6.926;2023-06-19T11:41:27;99876.28;;;25.01;98.93
46836;BME280;32573;51.290;6.926;2023-06-19T11:43:59;99872.53;;;25.05;98.85
46836;BME280;32573;51.290;6.926;2023-06-19T11:46:30;99881.28;;;25.10;98.65
46836;BME280;32573;51.290;6.926;2023-06-19T11:49:10;99875.75;;;25.16;98.04
46836;BME280;32573;51.290;6.926;2023-06-19T11:51:43;99889.84;;;25.22;97.49
46836;BME280;32573;51.290;6.926;2023-06-19T11:54:14;99879.81;;;25.27;96.63
46836;BME280;32573;51.290;6.926;2023-06-19T11:56:45;99878.75;;;25.31;97.01
46836;BME280;32573;51.290;6.926;2023-06-19T11:59:16;99878.53;;;25.37;97.04
46836;BME280;32573;51.290;6.926;2023-06-19T12:01:46;99876.56;;;25.42;96.62
46836;BME280;32573;51.290;6.926;2023-06-19T12:04:15;99877.22;;;25.49;96.28
46836;BME280;32573;51.290;6.926;2023-06-19T12:06:47;99873.34;;;25.56;96.33
46836;BME280;32573;51.290;6.926;2023-06-19T12:09:16;99873.25;;;25.59;94.62
46836;BME280;32573;51.290;6.926;2023-06-19T12:11:45;99882.03;;;25.63;94.36
46836;BME280;32573;51.290;6.926;2023-06-19T12:14:16;99880.03;;;25.68;94.11
46836;BME280;32573;51.290;6.926;2023-06-19T12:16:48;99878.06;;;25.73;94.40
46836;BME280;32573;51.290;6.926;2023-06-19T12:19:17;99871.66;;;25.77;93.91
46836;BME280;32573;51.290;6.926;2023-06-19T12:21:47;99871.38;;;25.83;93.30
46836;BME280;32573;51.290;6.926;2023-06-19T12:24:16;99864.06;;;25.88;93.02
46836;BME280;32573;51.290;6.926;2023-06-19T12:26:45;99867.34;;;25.96;93.20
46836;BME280;32573;51.290;6.926;2023-06-19T12:29:14;99862.66;;;26.01;93.26
46836;BME280;32573;51.290;6.926;2023-06-19T12:31:43;99860.56;;;26.08;92.58
46836;BME280;32573;51.290;6.926;2023-06-19T12:34:14;99863.03;;;26.14;92.64
46836;BME280;32573;51.290;6.926;2023-06-19T12:36:57;99866.34;;;26.21;92.05
46836;BME280;32573;51.290;6.926;2023-06-19T12:39:32;99864.31;;;26.26;91.32
46836;BME280;32573;51.290;6.926;2023-06-19T12:42:02;99870.47;;;26.28;91.45
46836;BME280;32573;51.290;6.926;2023-06-19T12:44:32;99872.16;;;26.31;90.57
46836;BME280;32573;51.290;6.926;2023-06-19T12:47:01;99868.56;;;26.32;89.93
46836;BME280;32573;51.290;6.926;2023-06-19T12:49:32;99861.38;;;26.32;89.04
46836;BME280;32573;51.290;6.926;2023-06-19T12:52:00;99874.75;;;26.34;89.24
46836;BME280;32573;51.290;6.926;2023-06-19T12:54:29;99863.91;;;26.35;89.63
46836;BME280;32573;51.290;6.926;2023-06-19T12:56:57;99864.75;;;26.37;88.72
46836;BME280;32573;51.290;6.926;2023-06-19T12:59:25;99871.94;;;26.37;87.99
46836;BME280;32573;51.290;6.926;2023-06-19T13:01:54;99879.13;;;26.36;87.75
46836;BME280;32573;51.290;6.926;2023-06-19T13:04:22;99871.06;;;26.36;87.44
46836;BME280;32573;51.290;6.926;2023-06-19T13:06:52;99871.06;;;26.36;87.57
46836;BME280;32573;51.290;6.926;2023-06-19T13:09:20;99867.28;;;26.40;87.50
46836;BME280;32573;51.290;6.926;2023-06-19T13:11:49;99864.34;;;26.46;87.87
46836;BME280;32573;51.290;6.926;2023-06-19T13:14:17;99856.06;;;26.53;87.67
46836;BME280;32573;51.290;6.926;2023-06-19T13:16:45;99862.06;;;26.59;87.25